createdAt,value
2022-12-08T00:01:18.395Z,9.32
2022-12-08T00:03:46.344Z,8.60
2022-12-08T00:07:04.459Z,8.43
2022-12-08T00:09:41.389Z,7.15
2022-12-08T00:12:13.037Z,8.43
2022-12-08T00:17:10.246Z,7.22
2022-12-08T00:19:39.261Z,7.82
2022-12-08T00:22:08.622Z,6.90
2022-12-08T00:24:40.807Z,6.55
2022-12-08T00:27:13.214Z,7.30
2022-12-08T00:29:40.766Z,6.18
2022-12-08T00:32:07.754Z,6.15
2022-12-08T00:34:35.215Z,6.88
2022-12-08T00:37:02.195Z,6.47
2022-12-08T00:39:29.071Z,7.70
2022-12-08T00:42:14.129Z,7.30
2022-12-08T00:44:45.940Z,6.82
2022-12-08T00:47:14.485Z,6.35
2022-12-08T00:49:41.383Z,7.68
2022-12-08T00:52:08.652Z,7.65
2022-12-08T00:54:35.811Z,7.15
2022-12-08T00:57:03.632Z,6.95
2022-12-08T00:59:30.513Z,7.93
2022-12-08T01:01:57.491Z,7.05
2022-12-08T01:04:24.689Z,7.85
2022-12-08T01:06:51.613Z,7.88
2022-12-08T01:09:18.723Z,7.45
2022-12-08T01:11:46.827Z,11.60
2022-12-08T01:14:14.789Z,9.38
2022-12-08T01:16:42.288Z,9.05
2022-12-08T01:19:16.286Z,8.48
2022-12-08T01:21:45.002Z,10.40
2022-12-08T01:24:14.410Z,7.57
2022-12-08T01:26:42.009Z,8.63
2022-12-08T01:29:09.671Z,7.88
2022-12-08T01:31:37.121Z,9.07
2022-12-08T01:34:04.446Z,8.50
2022-12-08T01:36:32.902Z,7.80
2022-12-08T01:39:01.545Z,7.93
2022-12-08T01:41:33.935Z,8.88
2022-12-08T01:44:23.713Z,8.55
2022-12-08T01:46:53.698Z,8.10
2022-12-08T01:49:30.610Z,7.85
2022-12-08T01:52:04.838Z,7.97
2022-12-08T01:54:39.703Z,8.60
2022-12-08T01:57:35.756Z,7.35
2022-12-08T02:00:09.942Z,8.50
2022-12-08T02:03:04.671Z,7.32
2022-12-08T02:05:34.775Z,8.00
2022-12-08T02:08:06.636Z,7.68
2022-12-08T02:10:37.018Z,7.28
2022-12-08T02:13:07.019Z,8.27
2022-12-08T02:15:45.991Z,7.75
2022-12-08T02:18:24.492Z,7.70
2022-12-08T02:20:55.440Z,7.03
2022-12-08T02:24:02.070Z,7.05
2022-12-08T02:26:44.694Z,7.00
2022-12-08T02:29:39.102Z,7.45
2022-12-08T02:32:17.577Z,8.63
2022-12-08T02:34:47.428Z,7.20
2022-12-08T02:37:26.146Z,7.97
2022-12-08T02:40:20.650Z,7.07
2022-12-08T02:42:49.301Z,7.90
2022-12-08T02:45:37.536Z,7.57
2022-12-08T02:48:05.097Z,8.02
2022-12-08T02:50:32.341Z,7.45
2022-12-08T02:52:59.220Z,7.65
2022-12-08T02:55:49.022Z,7.70
2022-12-08T02:58:22.880Z,6.82
2022-12-08T03:01:34.457Z,6.57
2022-12-08T03:04:18.857Z,6.68
2022-12-08T03:07:06.322Z,6.50
2022-12-08T03:09:37.044Z,6.25
2022-12-08T03:12:16.976Z,6.30
2022-12-08T03:14:48.322Z,6.13
2022-12-08T03:17:18.664Z,6.30
2022-12-08T03:19:47.858Z,6.40
2022-12-08T03:22:17.104Z,7.47
2022-12-08T03:24:45.966Z,6.88
2022-12-08T03:27:19.671Z,6.78
2022-12-08T03:29:48.585Z,6.60
2022-12-08T03:32:30.708Z,5.65
2022-12-08T03:35:00.614Z,5.47
2022-12-08T03:37:28.629Z,5.18
2022-12-08T03:39:56.085Z,5.70
2022-12-08T03:42:25.532Z,5.30
2022-12-08T03:44:52.531Z,5.55
2022-12-08T03:47:19.392Z,5.15
2022-12-08T03:49:46.319Z,4.85
2022-12-08T03:52:13.173Z,5.47
2022-12-08T03:54:40.096Z,5.63
2022-12-08T03:57:07.979Z,5.88
2022-12-08T03:59:36.463Z,6.03
2022-12-08T04:02:05.250Z,4.97
2022-12-08T04:04:32.123Z,6.00
2022-12-08T04:06:58.958Z,4.97
2022-12-08T04:09:25.814Z,4.20
2022-12-08T04:11:52.713Z,5.03
2022-12-08T04:14:19.644Z,4.45
2022-12-08T04:16:46.541Z,4.18
2022-12-08T04:19:13.345Z,4.35
2022-12-08T04:21:40.345Z,5.15
2022-12-08T04:24:07.772Z,4.00
2022-12-08T04:26:34.708Z,3.80
2022-12-08T04:29:01.632Z,3.75
2022-12-08T04:31:28.748Z,3.65
2022-12-08T04:33:55.707Z,3.38
2022-12-08T04:36:23.109Z,3.33
2022-12-08T04:38:49.929Z,3.20
2022-12-08T04:41:16.791Z,4.43
2022-12-08T04:43:44.564Z,3.35
2022-12-08T04:46:11.642Z,4.63
2022-12-08T04:48:39.648Z,5.13
2022-12-08T04:51:07.007Z,9.98
2022-12-08T04:53:33.886Z,8.32
2022-12-08T04:56:00.985Z,7.70
2022-12-08T04:58:27.835Z,5.57
2022-12-08T05:00:54.847Z,4.45
2022-12-08T05:03:28.242Z,5.15
2022-12-08T05:05:55.712Z,8.25
2022-12-08T05:08:23.192Z,7.70
2022-12-08T05:10:50.105Z,5.95
2022-12-08T05:13:16.914Z,6.95
2022-12-08T05:15:43.760Z,6.82
2022-12-08T05:18:11.308Z,6.47
2022-12-08T05:20:38.219Z,7.03
2022-12-08T05:23:05.205Z,5.93
2022-12-08T05:25:32.081Z,5.55
2022-12-08T05:28:24.676Z,5.40
2022-12-08T05:30:46.542Z,5.43
2022-12-08T05:33:13.994Z,5.85
2022-12-08T05:35:43.061Z,8.27
2022-12-08T05:38:11.676Z,7.13
2022-12-08T05:40:40.046Z,6.70
2022-12-08T05:43:07.325Z,6.50
2022-12-08T05:45:35.016Z,6.70
2022-12-08T05:48:02.192Z,5.55
2022-12-08T05:50:30.129Z,4.38
2022-12-08T05:52:56.976Z,5.22
2022-12-08T05:55:23.960Z,5.03
2022-12-08T05:57:50.824Z,6.30
2022-12-08T06:00:18.284Z,7.13
2022-12-08T06:02:45.238Z,5.70
2022-12-08T06:05:12.395Z,5.97
2022-12-08T06:07:39.569Z,5.78
2022-12-08T06:10:07.341Z,6.45
2022-12-08T06:12:34.484Z,5.35
2022-12-08T06:15:01.388Z,6.65
2022-12-08T06:17:28.718Z,7.07
2022-12-08T06:19:55.537Z,6.43
2022-12-08T06:22:23.937Z,7.10
2022-12-08T06:24:52.095Z,7.38
2022-12-08T06:27:19.006Z,7.90
2022-12-08T06:29:45.884Z,7.40
2022-12-08T06:32:12.833Z,7.10
2022-12-08T06:34:39.761Z,7.50
2022-12-08T06:37:06.604Z,7.57
2022-12-08T06:39:33.423Z,6.95
2022-12-08T06:42:19.157Z,7.75
2022-12-08T06:44:46.218Z,7.63
2022-12-08T06:47:13.075Z,7.07
2022-12-08T06:49:40.103Z,6.95
2022-12-08T06:52:08.429Z,7.47
2022-12-08T06:54:35.268Z,7.72
2022-12-08T06:57:03.460Z,6.32
2022-12-08T06:59:30.548Z,6.57
2022-12-08T07:01:58.880Z,7.35
2022-12-08T07:04:25.987Z,6.18
2022-12-08T07:06:53.454Z,6.68
2022-12-08T07:09:23.099Z,6.85
2022-12-08T07:11:50.068Z,5.57
2022-12-08T07:14:29.133Z,5.28
2022-12-08T07:16:56.030Z,6.10
2022-12-08T07:19:23.158Z,5.80
2022-12-08T07:21:50.121Z,5.95
2022-12-08T07:24:16.967Z,4.97
2022-12-08T07:26:43.767Z,5.07
2022-12-08T07:29:11.231Z,5.00
2022-12-08T07:31:38.252Z,4.68
2022-12-08T07:34:05.241Z,4.75
2022-12-08T07:36:32.928Z,5.28
2022-12-08T07:38:59.910Z,5.10
2022-12-08T07:41:27.499Z,4.93
2022-12-08T07:43:55.557Z,4.95
2022-12-08T07:46:24.592Z,4.60
2022-12-08T07:48:53.383Z,5.53
2022-12-08T07:51:20.572Z,5.35
2022-12-08T07:53:53.735Z,4.60
2022-12-08T07:56:22.590Z,4.75
2022-12-08T07:58:49.516Z,4.60
2022-12-08T08:01:22.477Z,5.32
2022-12-08T08:03:49.676Z,4.50
2022-12-08T08:06:16.641Z,6.03
2022-12-08T08:08:43.478Z,4.90
2022-12-08T08:11:19.042Z,5.10
2022-12-08T08:13:48.294Z,4.93
2022-12-08T08:16:16.387Z,4.88
2022-12-08T08:18:43.625Z,5.43
2022-12-08T08:23:57.305Z,4.70
2022-12-08T08:26:24.098Z,4.68
2022-12-08T08:28:51.059Z,4.10
2022-12-08T08:31:17.995Z,5.05
2022-12-08T08:33:44.903Z,5.05
2022-12-08T08:36:11.977Z,4.20
2022-12-08T08:38:40.118Z,3.70
2022-12-08T08:41:10.954Z,3.40
2022-12-08T08:43:39.008Z,3.67
2022-12-08T08:46:07.029Z,3.60
2022-12-08T08:48:34.069Z,3.17
2022-12-08T08:51:09.246Z,4.03
2022-12-08T08:53:36.803Z,3.92
2022-12-08T08:56:05.410Z,4.93
2022-12-08T08:58:32.262Z,4.68
2022-12-08T09:00:59.107Z,4.70
2022-12-08T09:03:25.964Z,5.75
2022-12-08T09:05:52.889Z,3.85
2022-12-08T09:08:19.906Z,3.92
2022-12-08T09:10:46.814Z,4.53
2022-12-08T09:13:13.621Z,3.75
2022-12-08T09:15:41.674Z,4.50
2022-12-08T09:18:09.719Z,3.58
2022-12-08T09:20:40.873Z,3.25
2022-12-08T09:23:07.738Z,3.60
2022-12-08T09:25:34.620Z,3.90
2022-12-08T09:28:01.488Z,3.20
2022-12-08T09:30:28.327Z,3.85
2022-12-08T09:32:55.243Z,4.10
2022-12-08T09:35:22.107Z,4.10
2022-12-08T09:37:49.130Z,4.25
2022-12-08T09:40:18.868Z,3.33
2022-12-08T09:42:51.731Z,3.25
2022-12-08T09:45:21.287Z,3.13
2022-12-08T09:48:02.340Z,3.38
2022-12-08T09:50:41.830Z,3.60
2022-12-08T09:53:35.249Z,4.55
2022-12-08T09:56:19.708Z,4.05
2022-12-08T09:59:06.857Z,3.95
2022-12-08T10:01:41.947Z,4.18
2022-12-08T10:04:17.981Z,5.22
2022-12-08T10:06:49.947Z,6.68
2022-12-08T10:09:48.843Z,5.20
2022-12-08T10:12:22.458Z,4.60
2022-12-08T10:14:58.057Z,4.30
2022-12-08T10:17:34.663Z,4.28
2022-12-08T10:20:22.751Z,4.60
2022-12-08T10:23:18.236Z,4.30
2022-12-08T10:25:47.793Z,3.80
2022-12-08T10:28:14.669Z,3.95
2022-12-08T10:30:42.024Z,3.67
2022-12-08T10:33:18.085Z,3.88
2022-12-08T10:35:54.679Z,3.50
2022-12-08T10:38:23.352Z,3.90
2022-12-08T10:40:52.048Z,3.30
2022-12-08T10:43:24.008Z,4.28
2022-12-08T10:45:55.863Z,5.13
2022-12-08T10:48:33.467Z,5.18
2022-12-08T10:51:00.600Z,8.90
2022-12-08T10:53:29.856Z,8.10
2022-12-08T10:56:02.545Z,5.45
2022-12-08T10:58:37.256Z,5.35
2022-12-08T11:01:10.434Z,5.53
2022-12-08T11:03:52.606Z,4.70
2022-12-08T11:06:20.741Z,4.25
2022-12-08T11:08:55.325Z,5.03
2022-12-08T11:11:36.714Z,5.10
2022-12-08T11:14:07.946Z,4.68
2022-12-08T11:16:35.740Z,4.97
2022-12-08T11:19:08.300Z,5.20
2022-12-08T11:21:37.359Z,4.90
2022-12-08T11:24:16.538Z,5.10
2022-12-08T11:27:02.613Z,6.10
2022-12-08T11:29:32.778Z,4.93
2022-12-08T11:32:15.469Z,5.00
2022-12-08T11:35:06.232Z,5.00
2022-12-08T11:37:44.374Z,4.72
2022-12-08T11:40:39.037Z,4.47
2022-12-08T11:43:33.836Z,5.50
2022-12-08T11:46:21.420Z,4.90
2022-12-08T11:48:54.308Z,4.32
2022-12-08T11:51:28.258Z,6.22
2022-12-08T11:54:25.478Z,4.75
2022-12-08T11:56:58.416Z,4.70
2022-12-08T11:59:46.994Z,4.90
2022-12-08T12:02:42.812Z,4.78
2022-12-08T12:08:48.632Z,4.43
2022-12-08T12:11:46.639Z,4.90
2022-12-08T12:14:35.138Z,4.65
2022-12-08T12:17:18.953Z,5.05
2022-12-08T12:19:48.646Z,4.45
2022-12-08T12:22:17.771Z,4.25
2022-12-08T12:24:50.937Z,4.00
2022-12-08T12:27:44.364Z,4.68
2022-12-08T12:30:28.517Z,3.90
2022-12-08T12:33:01.106Z,3.35
2022-12-08T12:35:28.287Z,3.75
2022-12-08T12:38:05.447Z,4.88
2022-12-08T12:40:41.566Z,5.13
2022-12-08T12:43:13.875Z,4.30
2022-12-08T12:45:44.938Z,4.13
2022-12-08T12:48:31.186Z,5.22
2022-12-08T12:50:58.135Z,5.00
2022-12-08T12:53:24.972Z,5.53
2022-12-08T12:56:04.160Z,6.18
2022-12-08T12:58:33.868Z,6.88
2022-12-08T13:01:13.171Z,7.40
2022-12-08T13:03:47.286Z,6.35
2022-12-08T13:06:21.543Z,5.90
2022-12-08T13:08:55.092Z,6.10
2022-12-08T13:11:23.487Z,6.32
2022-12-08T13:14:03.727Z,6.60
2022-12-08T13:16:37.568Z,5.72
2022-12-08T13:19:12.205Z,5.47
2022-12-08T13:21:39.950Z,5.28
2022-12-08T13:24:27.321Z,5.18
2022-12-08T13:27:06.548Z,5.15
2022-12-08T13:29:35.312Z,4.85
2022-12-08T13:32:03.011Z,6.28
2022-12-08T13:34:32.876Z,6.50
2022-12-08T13:37:31.159Z,7.07
2022-12-08T13:40:08.594Z,8.18
2022-12-08T13:43:13.660Z,8.05
2022-12-08T13:57:32.901Z,7.72
2022-12-08T14:00:04.042Z,7.45
2022-12-08T14:02:42.236Z,7.45
2022-12-08T14:05:20.396Z,7.57
2022-12-08T14:07:52.082Z,7.50
2022-12-08T14:10:32.700Z,6.85
2022-12-08T14:13:06.397Z,7.65
2022-12-08T14:15:38.452Z,7.43
2022-12-08T14:18:22.926Z,8.57
2022-12-08T14:21:20.797Z,8.02
2022-12-08T14:23:48.154Z,8.20
2022-12-08T14:26:14.975Z,8.13
2022-12-08T14:28:45.274Z,9.07
2022-12-08T14:31:14.783Z,8.18
2022-12-08T14:33:42.583Z,9.88
2022-12-08T14:36:12.671Z,8.63
2022-12-08T14:38:42.906Z,9.98
2022-12-08T14:41:12.493Z,8.55
2022-12-08T14:43:41.123Z,8.32
2022-12-08T14:46:22.895Z,8.50
2022-12-08T14:48:49.966Z,9.77
2022-12-08T14:51:20.156Z,11.93
2022-12-08T14:53:58.923Z,11.07
2022-12-08T14:56:36.967Z,11.75
2022-12-08T14:59:05.942Z,11.27
2022-12-08T15:01:34.880Z,11.95
2022-12-08T15:04:13.868Z,10.93
2022-12-08T15:06:57.946Z,10.25
2022-12-08T15:09:41.090Z,9.52
2022-12-08T15:12:26.701Z,10.20
2022-12-08T15:14:57.154Z,9.32
2022-12-08T15:17:33.722Z,9.57
2022-12-08T15:20:02.227Z,9.85
2022-12-08T15:22:30.705Z,9.55
2022-12-08T15:24:57.976Z,9.25
2022-12-08T15:27:25.671Z,10.15
2022-12-08T15:29:53.220Z,9.13
2022-12-08T15:32:22.198Z,11.45
2022-12-08T15:34:49.377Z,12.80
2022-12-08T15:37:26.327Z,11.57
2022-12-08T15:39:54.908Z,11.07
2022-12-08T15:42:21.892Z,13.05
2022-12-08T15:44:48.750Z,11.88
2022-12-08T15:47:23.703Z,12.50
2022-12-08T15:49:55.432Z,15.55
2022-12-08T15:52:24.531Z,13.10
2022-12-08T15:54:51.809Z,13.60
2022-12-08T16:00:52.660Z,9.93
2022-12-08T16:07:04.814Z,13.30
2022-12-08T16:09:17.415Z,9.70
2022-12-08T16:12:08.375Z,7.65
2022-12-08T16:17:23.446Z,9.07
2022-12-08T16:19:50.309Z,9.05
2022-12-08T16:25:18.166Z,7.72
2022-12-08T16:28:12.283Z,7.70
2022-12-08T16:30:32.482Z,7.65
2022-12-08T16:32:59.359Z,8.43
2022-12-08T16:35:26.207Z,6.32
2022-12-08T16:38:13.854Z,6.88
2022-12-08T16:41:07.339Z,6.30
2022-12-08T16:43:34.619Z,5.82
2022-12-08T16:46:02.953Z,4.95
2022-12-08T16:48:29.883Z,5.80
2022-12-08T16:50:57.017Z,5.70
2022-12-08T16:53:25.229Z,6.03
2022-12-08T16:55:52.188Z,6.38
2022-12-08T16:58:19.032Z,5.70
2022-12-08T17:00:46.206Z,5.50
2022-12-08T17:03:15.526Z,5.82
2022-12-08T17:05:42.916Z,6.72
2022-12-08T17:08:10.167Z,8.13
2022-12-08T17:10:39.642Z,7.32
2022-12-08T17:13:08.574Z,7.68
2022-12-08T17:15:35.416Z,6.57
2022-12-08T17:18:03.569Z,6.45
2022-12-08T17:20:30.496Z,7.13
2022-12-08T17:22:58.648Z,5.68
2022-12-08T17:25:26.690Z,6.32
2022-12-08T17:27:53.614Z,6.40
2022-12-08T17:30:20.532Z,6.13
2022-12-08T17:32:47.623Z,5.80
2022-12-08T17:35:24.596Z,5.88
2022-12-08T17:37:51.561Z,6.40
2022-12-08T17:40:18.564Z,6.63
2022-12-08T17:42:45.547Z,6.07
2022-12-08T17:45:12.515Z,6.28
2022-12-08T17:47:39.566Z,6.13
2022-12-08T17:50:07.432Z,6.68
2022-12-08T17:52:34.815Z,6.43
2022-12-08T17:55:01.807Z,6.15
2022-12-08T17:57:28.743Z,6.22
2022-12-08T17:59:55.625Z,5.78
2022-12-08T18:02:22.493Z,6.03
2022-12-08T18:04:49.362Z,6.00
2022-12-08T18:07:17.655Z,6.63
2022-12-08T18:09:44.474Z,6.85
2022-12-08T18:12:11.276Z,6.40
2022-12-08T18:14:39.593Z,7.55
2022-12-08T18:17:06.453Z,7.05
2022-12-08T18:19:33.602Z,6.10
2022-12-08T18:22:00.511Z,6.18
2022-12-08T18:24:28.196Z,6.20
2022-12-08T18:26:56.329Z,5.78
2022-12-08T18:29:24.108Z,5.10
2022-12-08T18:31:51.661Z,5.07
2022-12-08T18:34:21.474Z,5.45
2022-12-08T18:36:49.234Z,5.50
2022-12-08T18:39:28.688Z,4.30
2022-12-08T18:41:57.147Z,4.95
2022-12-08T18:44:24.930Z,4.75
2022-12-08T18:46:52.250Z,4.40
2022-12-08T18:49:20.782Z,3.72
2022-12-08T18:51:49.048Z,4.25
2022-12-08T18:54:15.885Z,4.72
2022-12-08T18:56:42.732Z,4.78
2022-12-08T18:59:13.063Z,4.80
2022-12-08T19:01:40.385Z,5.43
2022-12-08T19:04:28.040Z,4.57
2022-12-08T19:06:55.984Z,6.10
2022-12-08T19:09:22.897Z,6.05
2022-12-08T19:11:49.781Z,5.60
2022-12-08T19:14:16.639Z,4.50
2022-12-08T19:16:43.558Z,4.90
2022-12-08T19:19:10.410Z,4.88
2022-12-08T19:21:46.112Z,4.90
2022-12-08T19:24:13.450Z,5.05
2022-12-08T19:26:40.389Z,6.10
2022-12-08T19:29:07.753Z,4.50
2022-12-08T19:31:35.020Z,5.30
2022-12-08T19:34:02.229Z,6.05
2022-12-08T19:36:35.391Z,5.53
2022-12-08T19:39:22.538Z,5.55
2022-12-08T19:42:09.355Z,5.32
2022-12-08T19:44:54.350Z,6.10
2022-12-08T19:47:24.384Z,4.95
2022-12-08T19:49:52.652Z,7.30
2022-12-08T19:52:19.515Z,6.10
2022-12-08T19:54:47.171Z,5.65
2022-12-08T19:57:16.077Z,5.57
2022-12-08T19:59:44.211Z,5.53
2022-12-08T20:02:11.371Z,6.15
2022-12-08T20:04:38.315Z,6.07
2022-12-08T20:07:05.310Z,6.35
2022-12-08T20:09:32.241Z,6.45
2022-12-08T20:11:59.184Z,5.80
2022-12-08T20:14:26.178Z,6.35
2022-12-08T20:16:53.234Z,6.00
2022-12-08T20:19:20.337Z,5.90
2022-12-08T20:21:56.139Z,5.93
2022-12-08T20:24:23.164Z,6.95
2022-12-08T20:26:50.104Z,7.50
2022-12-08T20:29:18.872Z,6.82
2022-12-08T20:31:46.179Z,7.40
2022-12-08T20:34:18.491Z,6.43
2022-12-08T20:36:46.639Z,7.00
2022-12-08T20:39:15.463Z,6.50
2022-12-08T20:41:43.206Z,6.65
2022-12-08T20:44:10.411Z,6.63
2022-12-08T20:46:39.495Z,7.00
2022-12-08T20:49:07.450Z,7.13
2022-12-08T20:51:34.924Z,6.65
2022-12-08T20:54:05.252Z,6.78
2022-12-08T20:56:32.788Z,6.82
2022-12-08T20:59:01.640Z,6.47
2022-12-08T21:01:28.784Z,7.00
2022-12-08T21:03:56.549Z,6.95
2022-12-08T21:06:25.118Z,7.13
2022-12-08T21:08:52.570Z,7.88
2022-12-08T21:11:19.784Z,7.22
2022-12-08T21:13:47.036Z,7.15
2022-12-08T21:16:15.209Z,7.32
2022-12-08T21:18:42.600Z,7.25
2022-12-08T21:21:13.368Z,7.40
2022-12-08T21:23:42.531Z,7.60
2022-12-08T21:26:18.994Z,7.65
2022-12-08T21:28:46.408Z,7.88
2022-12-08T21:31:16.923Z,8.20
2022-12-08T21:33:44.111Z,7.82
2022-12-08T21:36:14.132Z,8.23
2022-12-08T21:38:41.916Z,8.88
2022-12-08T21:41:15.189Z,7.78
2022-12-08T21:43:43.770Z,8.98
2022-12-08T21:46:17.775Z,8.70
2022-12-08T21:48:44.943Z,8.98
2022-12-08T21:51:11.937Z,8.50
2022-12-08T21:53:38.958Z,8.68
2022-12-08T21:56:09.188Z,8.60
2022-12-08T21:58:39.806Z,8.55
2022-12-08T22:01:08.470Z,7.68
2022-12-08T22:03:36.537Z,8.63
2022-12-08T22:06:08.212Z,7.97
2022-12-08T22:08:36.097Z,9.13
2022-12-08T22:11:04.165Z,8.55
2022-12-08T22:13:33.953Z,7.38
2022-12-08T22:16:04.502Z,9.55
2022-12-08T22:18:32.394Z,9.43
2022-12-08T22:20:59.495Z,9.55
2022-12-08T22:23:26.475Z,9.20
2022-12-08T22:26:00.578Z,9.70
2022-12-08T22:28:30.318Z,9.02
2022-12-08T22:30:57.413Z,9.40
2022-12-08T22:33:24.798Z,9.50
2022-12-08T22:36:04.753Z,9.77
2022-12-08T22:38:35.172Z,9.13
2022-12-08T22:41:08.115Z,11.98
2022-12-08T22:43:36.707Z,13.13
2022-12-08T22:46:14.408Z,11.43
2022-12-08T22:48:42.222Z,10.18
2022-12-08T22:51:10.083Z,10.77
2022-12-08T22:53:38.702Z,10.93
2022-12-08T22:56:06.905Z,10.52
2022-12-08T22:58:34.311Z,10.45
2022-12-08T23:01:01.158Z,10.80
2022-12-08T23:03:29.539Z,10.45
2022-12-08T23:05:56.680Z,11.65
2022-12-08T23:08:24.314Z,10.52
2022-12-08T23:10:52.815Z,10.57
2022-12-08T23:13:20.752Z,10.63
2022-12-08T23:15:49.040Z,9.60
2022-12-08T23:18:19.340Z,9.98
2022-12-08T23:20:47.590Z,10.18
2022-12-08T23:23:17.449Z,10.25
2022-12-08T23:25:44.482Z,10.35
2022-12-08T23:28:14.412Z,9.57
2022-12-08T23:30:41.886Z,9.95
2022-12-08T23:33:09.219Z,9.75
2022-12-08T23:35:36.349Z,11.18
2022-12-08T23:38:03.641Z,11.52
2022-12-08T23:40:30.739Z,11.02
2022-12-08T23:42:57.736Z,11.77
2022-12-08T23:45:24.670Z,12.27
2022-12-08T23:47:53.178Z,12.10
2022-12-08T23:50:20.201Z,11.88
2022-12-08T23:52:47.325Z,12.15
2022-12-08T23:55:14.176Z,12.90
2022-12-08T23:57:41.013Z,11.43
